This is the latest recevied weather packets stored in our database for station/object OE-11331. If no packets are shown the sender has not sent any weather packets the latest 10 day(s).
| Time | Temp. | Humidity | Pressure | Rain* | Wind** | Luminosity | Snow |
|---|---|---|---|---|---|---|---|
| 1787781334 | 20° C | 83% | 1017.2 hPa | 0 mm | - | 0 W/m² | - |
| 1787780507 | 20° C | 82% | 1017.2 hPa | 0 mm | - | 0 W/m² | - |
| 1787780134 | 20.56° C | 82% | 1017.1 hPa | 0 mm | - | 0 W/m² | - |
| 1787779533 | 20.56° C | 81% | 1017.1 hPa | 0 mm | - | 0 W/m² | - |
| 1787778707 | 20.56° C | 82% | 1017 hPa | 0 mm | - | 0 W/m² | - |
| 1787778340 | 20.56° C | 81% | 1016.9 hPa | 0 mm | - | 0 W/m² | - |
| 1787777734 | 21.11° C | 78% | 1016.9 hPa | 0 mm | - | 0 W/m² | - |
| 1787776907 | 21.11° C | 79% | 1016.7 hPa | 0 mm | - | 0 W/m² | - |
| 1787776533 | 21.11° C | 79% | 1016.5 hPa | 0 mm | - | 0 W/m² | - |
| 1787775934 | 21.67° C | 78% | 1016.5 hPa | 0 mm | - | 0 W/m² | - |
| 1787775108 | 21.67° C | 76% | 1016.5 hPa | 0 mm | - | 0 W/m² | - |
| 1787774734 | 21.67° C | 75% | 1016.5 hPa | 0 mm | - | 0 W/m² | - |
| 1787774134 | 22.22° C | 74% | 1016.2 hPa | 0 mm | - | 0 W/m² | - |
| 1787773307 | 22.78° C | 70% | 1016 hPa | 0 mm | - | 0 W/m² | - |
| 1787772934 | 22.78° C | 70% | 1015.8 hPa | 0 mm | - | 0 W/m² | - |
| 1787772334 | 23.33° C | 68% | 1015.7 hPa | 0 mm | - | 0 W/m² | - |
| 1787771507 | 23.89° C | 68% | 1015.5 hPa | 0 mm | - | 0 W/m² | - |
| 1787771134 | 25° C | 59% | 1015.2 hPa | 0 mm | - | 0 W/m² | - |
| 1787770534 | 23.89° C | 63% | 1015.2 hPa | 0 mm | - | 0 W/m² | - |
| 1787769707 | 24.44° C | 63% | 1015.1 hPa | 0 mm | - | 0 W/m² | - |
| 1787769334 | 24.44° C | 63% | 1015 hPa | 0 mm | - | 0 W/m² | - |
| 1787768734 | 24.44° C | 62% | 1015 hPa | 0 mm | - | 0 W/m² | - |
| 1787767908 | 25.56° C | 60% | 1014.8 hPa | 0 mm | - | 0 W/m² | - |
| 1787767534 | 25.56° C | 58% | 1014.7 hPa | 0 mm | - | 11 W/m² | - |
| 1787766934 | 26.11° C | 55% | 1014.5 hPa | 0 mm | - | 22 W/m² | - |
* Rain latest hour (hover to see other rain measurements)
** Current wind speed in m/s (hover to see current wind gust speed)